Time;durP1;ratioP1;P1;durP2;ratioP2;P2;SDS_P1;SDS_P2;PMS_P1;PMS_P2;Temp;Humidity;BMP_temperature;BMP_pressure;BME280_temperature;BME280_humidity;BME280_pressure;Samples;Min_cycle;Max_cycle;Signal;HPM_P1;HPM_P2
2021/05/19 00:06:02;;;;;;;14.7;8;;;;;;;9.14;100;98061.59;;;;
2021/05/19 00:16:01;;;;;;;9.8;7.2;;;;;;;9.02;100;98056.81;;;;
2021/05/19 00:25:59;;;;;;;11.9;8.2;;;;;;;8.67;100;98050.48;;;;
2021/05/19 00:35:58;;;;;;;12.2;8.9;;;;;;;8.53;100;98052.45;;;;
2021/05/19 00:45:57;;;;;;;10.5;7.8;;;;;;;8.59;100;98038.58;;;;
2021/05/19 00:55:55;;;;;;;13.2;8.3;;;;;;;8.55;100;98039.49;;;;
2021/05/19 01:05:58;;;;;;;9.4;7.1;;;;;;;8.49;100;98043.41;;;;
2021/05/19 01:15:52;;;;;;;16.3;7;;;;;;;8.39;100;98047.16;;;;
2021/05/19 01:25:51;;;;;;;9.5;6.5;;;;;;;8.26;100;98044.5;;;;
2021/05/19 01:35:49;;;;;;;8.6;7;;;;;;;8.18;100;98055.96;;;;
2021/05/19 01:45:48;;;;;;;12.6;8.5;;;;;;;7.99;100;98056.11;;;;
2021/05/19 01:55:46;;;;;;;12;8.6;;;;;;;7.82;100;98072.06;;;;
2021/05/19 02:05:45;;;;;;;12.5;9.5;;;;;;;7.53;100;98080.48;;;;
2021/05/19 02:15:43;;;;;;;13.8;11.9;;;;;;;7.48;100;98078.69;;;;
2021/05/19 02:25:42;;;;;;;16;13.2;;;;;;;7.28;100;98079.09;;;;
2021/05/19 02:35:40;;;;;;;16.3;13.8;;;;;;;7.2;100;98082.46;;;;
2021/05/19 02:45:39;;;;;;;16.1;14.3;;;;;;;7.2;100;98082.46;;;;
2021/05/19 02:55:37;;;;;;;19.8;15.1;;;;;;;7.11;100;98084.25;;;;
2021/05/19 03:05:35;;;;;;;18.6;15.6;;;;;;;7.14;100;98080.98;;;;
2021/05/19 03:15:34;;;;;;;20.1;15;;;;;;;7.22;100;98092.89;;;;
2021/05/19 03:25:34;;;;;;;19.6;17.7;;;;;;;7.27;100;98092.78;;;;
2021/05/19 03:35:31;;;;;;;18.1;15.2;;;;;;;7.32;100;98098.06;;;;
2021/05/19 03:45:29;;;;;;;19.7;15.2;;;;;;;7.24;100;98115.63;;;;
2021/05/19 03:55:28;;;;;;;20.4;15.9;;;;;;;7.37;100;98124.75;;;;
2021/05/19 04:05:26;;;;;;;19;14.6;;;;;;;7.64;100;98135.47;;;;
2021/05/19 04:15:24;;;;;;;16.6;12.2;;;;;;;8.04;100;98147.25;;;;
2021/05/19 04:25:23;;;;;;;15.1;11.7;;;;;;;8.49;100;98158.89;;;;
2021/05/19 04:35:22;;;;;;;15.1;13.1;;;;;;;8.92;100;98164.59;;;;
2021/05/19 04:45:20;;;;;;;13.9;11.7;;;;;;;9.2;100;98155.23;;;;
2021/05/19 04:55:19;;;;;;;13.8;12.5;;;;;;;9.58;100;98182.46;;;;
2021/05/19 05:05:18;;;;;;;15.9;13.7;;;;;;;10.04;100;98182.78;;;;
2021/05/19 05:15:18;;;;;;;26.9;16.1;;;;;;;10.4;100;98198.73;;;;
2021/05/19 05:25:15;;;;;;;20.4;18.4;;;;;;;10.45;100;98195.86;;;;
2021/05/19 05:35:14;;;;;;;35;25.2;;;;;;;10.35;100;98195.38;;;;
2021/05/19 05:45:13;;;;;;;43.2;36.1;;;;;;;10.36;100;98218.52;;;;
2021/05/19 05:55:12;;;;;;;27.3;24.6;;;;;;;10.6;100;98214.27;;;;
2021/05/19 06:05:11;;;;;;;21.2;17.2;;;;;;;10.94;100;98234.23;;;;
2021/05/19 06:15:10;;;;;;;29.9;24.7;;;;;;;11.18;100;98234.53;;;;
2021/05/19 06:25:09;;;;;;;29.4;24.3;;;;;;;11.2;100;98224.23;;;;
2021/05/19 06:35:08;;;;;;;22.9;20.6;;;;;;;11.67;100;98216.95;;;;
2021/05/19 06:45:07;;;;;;;19.7;16.6;;;;;;;11.86;100;98212;;;;
2021/05/19 06:55:06;;;;;;;13.9;12.4;;;;;;;11.89;100;98211.34;;;;
2021/05/19 07:05:05;;;;;;;23;16.8;;;;;;;11.97;100;98218.63;;;;
2021/05/19 07:15:11;;;;;;;15.8;13.5;;;;;;;12.3;100;98228.77;;;;
2021/05/19 07:25:03;;;;;;;21.6;15.3;;;;;;;13.08;100;98229.78;;;;
2021/05/19 07:35:03;;;;;;;14;10.8;;;;;;;13.01;100;98234.94;;;;
2021/05/19 07:45:02;;;;;;;12.4;11.1;;;;;;;13.08;100;98238.66;;;;
2021/05/19 07:55:03;;;;;;;10.1;7.1;;;;;;;13.39;100;98245.59;;;;
2021/05/19 08:05:00;;;;;;;8.9;7.1;;;;;;;13.09;100;98243;;;;
2021/05/19 08:15:00;;;;;;;10;6.3;;;;;;;13.79;100;98240.38;;;;
2021/05/19 08:25:00;;;;;;;8.1;5.4;;;;;;;14.08;100;98235.56;;;;
2021/05/19 08:34:58;;;;;;;7.1;5.1;;;;;;;14.57;100;98228.21;;;;
2021/05/19 08:44:58;;;;;;;9.7;6;;;;;;;14.96;100;98231.28;;;;
2021/05/19 08:54:57;;;;;;;7.7;5;;;;;;;15.12;100;98226.69;;;;
2021/05/19 09:04:57;;;;;;;10;6.5;;;;;;;15.24;99.33398;98217.71;;;;
2021/05/19 09:15:00;;;;;;;10.6;5.9;;;;;;;15.17;97.09961;98223.7;;;;
2021/05/19 09:24:56;;;;;;;9.1;6;;;;;;;15.97;94.55957;98218.05;;;;
2021/05/19 09:34:56;;;;;;;7.6;5.6;;;;;;;15.6;94.61523;98217.53;;;;
2021/05/19 09:44:57;;;;;;;7.5;5.3;;;;;;;15.28;91.40527;98222.08;;;;
2021/05/19 09:54:55;;;;;;;11.5;7.1;;;;;;;15.36;94.07813;98198.63;;;;
2021/05/19 10:04:59;;;;;;;7.4;5.6;;;;;;;15.56;90.78027;98186.77;;;;
2021/05/19 10:14:54;;;;;;;8.3;7.2;;;;;;;15.78;89.1875;98180.73;;;;
2021/05/19 10:24:58;;;;;;;11.5;8.3;;;;;;;15.8;88.19043;98188.52;;;;
2021/05/19 10:34:53;;;;;;;10.8;6.6;;;;;;;16.25;88.63379;98169.78;;;;
2021/05/19 10:44:53;;;;;;;8;4.8;;;;;;;16.09;83.63379;98169.83;;;;
2021/05/19 11:04:52;;;;;;;6.9;5.1;;;;;;;16.7;82.56055;98169.23;;;;
2021/05/19 11:14:57;;;;;;;6.9;4.8;;;;;;;17.05;84.56934;98164.5;;;;
2021/05/19 11:24:53;;;;;;;6.5;3.3;;;;;;;17.25;77.68262;98176.15;;;;
2021/05/19 11:34:51;;;;;;;4.9;3;;;;;;;17.33;79.30078;98168.91;;;;
2021/05/19 11:44:54;;;;;;;5.1;3.1;;;;;;;17.65;79.23145;98167.56;;;;
2021/05/19 11:54:51;;;;;;;5.3;3.3;;;;;;;17.61;79.11035;98169.44;;;;
2021/05/19 12:04:51;;;;;;;7.8;3.7;;;;;;;17.71;77.64941;98163.38;;;;
2021/05/19 12:14:50;;;;;;;5.6;3.4;;;;;;;17.24;76.77637;98141.13;;;;
2021/05/19 12:24:51;;;;;;;7;3.8;;;;;;;18.15;79.69824;98149.27;;;;
2021/05/19 12:34:50;;;;;;;5.4;3.2;;;;;;;17.8;80.66895;98163.14;;;;
2021/05/19 12:44:50;;;;;;;6.7;3.5;;;;;;;18.33;81.75;98147.56;;;;
2021/05/19 12:54:50;;;;;;;5.1;2.8;;;;;;;18.83;82.03711;98132.65;;;;
2021/05/19 13:04:50;;;;;;;5.4;3.3;;;;;;;19.08;79.80957;98139.97;;;;
2021/05/19 13:14:52;;;;;;;6.5;4.1;;;;;;;18.74;77.09277;98145.81;;;;
2021/05/19 13:24:50;;;;;;;6;3.1;;;;;;;19.53;76.8623;98135.36;;;;
2021/05/19 13:36:15;;;;;;;4.7;2.9;;;;;;;19.97;73.81348;98130.64;;;;
2021/05/19 13:44:50;;;;;;;5.7;3.1;;;;;;;18.84;74.46582;98145.94;;;;
2021/05/19 13:54:49;;;;;;;3.6;2.2;;;;;;;16.64;83.9209;98146.18;;;;
2021/05/19 14:04:49;;;;;;;6.3;2.7;;;;;;;15.4;97.44336;98158.78;;;;
2021/05/19 14:14:52;;;;;;;4.5;3;;;;;;;15.29;99.87891;98150.36;;;;
2021/05/19 14:34:50;;;;;;;6.8;2.1;;;;;;;15.8;100;98156.7;;;;
2021/05/19 15:04:50;;;;;;;5.6;3.4;;;;;;;15.22;97.09766;98181.95;;;;
2021/05/19 15:14:48;;;;;;;5.2;3.2;;;;;;;13.73;100;98185.64;;;;
2021/05/19 15:24:46;;;;;;;7.1;4.9;;;;;;;13.67;100;98183.5;;;;
2021/05/19 15:34:45;;;;;;;15.3;8.1;;;;;;;13.86;100;98181.8;;;;
2021/05/19 15:44:46;;;;;;;28.1;9.1;;;;;;;14.17;100;98172.3;;;;
2021/05/19 15:54:44;;;;;;;6;3.8;;;;;;;14.2;99.67871;98172.41;;;;
2021/05/19 16:04:46;;;;;;;8;4.2;;;;;;;14.46;100;98166.64;;;;
2021/05/19 16:14:43;;;;;;;5.2;3.2;;;;;;;14.67;95.53906;98180.03;;;;
2021/05/19 16:24:42;;;;;;;8.8;3.4;;;;;;;15.14;95.08691;98178.26;;;;
2021/05/19 16:34:44;;;;;;;4.8;2.7;;;;;;;15.11;94.38965;98179.75;;;;
2021/05/19 16:44:42;;;;;;;9;4.4;;;;;;;14.84;92.34473;98182.47;;;;
2021/05/19 16:54:42;;;;;;;5.7;3.6;;;;;;;14.53;94.43555;98202.91;;;;
2021/05/19 17:04:53;;;;;;;12.6;7.2;;;;;;;14.24;95.5166;98205.84;;;;
2021/05/19 17:14:39;;;;;;;11.3;8;;;;;;;13.88;100;98205.86;;;;
2021/05/19 17:24:38;;;;;;;7.3;4.9;;;;;;;13.69;100;98206.4;;;;
2021/05/19 17:34:38;;;;;;;6.5;3.7;;;;;;;13.51;100;98199.59;;;;
2021/05/19 17:44:37;;;;;;;10.3;5.4;;;;;;;13.22;100;98203.27;;;;
2021/05/19 17:54:36;;;;;;;13.5;8.2;;;;;;;12.92;100;98199.83;;;;
2021/05/19 18:04:36;;;;;;;17.8;11;;;;;;;12.53;100;98195.69;;;;
2021/05/19 18:14:37;;;;;;;11.5;7.5;;;;;;;12.19;100;98192.42;;;;
2021/05/19 18:24:36;;;;;;;10.8;7.1;;;;;;;12.21;100;98207.21;;;;
2021/05/19 18:34:47;;;;;;;17.9;7.6;;;;;;;12.01;100;98216.03;;;;
2021/05/19 18:44:32;;;;;;;17;10.7;;;;;;;11.9;100;98233.75;;;;
2021/05/19 18:54:31;;;;;;;12.9;10.5;;;;;;;11.66;100;98247.78;;;;
2021/05/19 19:04:32;;;;;;;9.6;8.2;;;;;;;11.52;100;98244.48;;;;
2021/05/19 19:14:29;;;;;;;8.9;5.8;;;;;;;11.46;100;98243.05;;;;
2021/05/19 19:24:28;;;;;;;9;6.2;;;;;;;11.22;100;98254.36;;;;
2021/05/19 19:34:27;;;;;;;7.8;5.6;;;;;;;11.14;100;98251.69;;;;
2021/05/19 19:44:26;;;;;;;15.1;5.8;;;;;;;10.86;100;98260.11;;;;
2021/05/19 19:54:25;;;;;;;14.3;7.2;;;;;;;10.73;100;98261.03;;;;
2021/05/19 20:04:24;;;;;;;11.2;6.7;;;;;;;10.63;100;98261.34;;;;
2021/05/19 20:14:24;;;;;;;13.5;6.5;;;;;;;10.46;100;98267.5;;;;
2021/05/19 20:24:21;;;;;;;17.3;13.2;;;;;;;10.28;100;98267.77;;;;
2021/05/19 20:34:21;;;;;;;14;10.7;;;;;;;10.04;100;98266.25;;;;
2021/05/19 20:44:19;;;;;;;21.8;10;;;;;;;9.95;100;98275.4;;;;
2021/05/19 20:54:18;;;;;;;14.2;9.2;;;;;;;9.62;100;98293.75;;;;
2021/05/19 21:04:17;;;;;;;14.8;12.2;;;;;;;9.42;100;98286.98;;;;
2021/05/19 21:14:16;;;;;;;17.3;14;;;;;;;9.33;100;98290.73;;;;
2021/05/19 21:24:14;;;;;;;18;15.2;;;;;;;9.2;100;98284.3;;;;
2021/05/19 21:34:13;;;;;;;22.6;15.4;;;;;;;9.19;100;98282.73;;;;
2021/05/19 21:44:12;;;;;;;18.6;15.9;;;;;;;9.18;100;98291.88;;;;
2021/05/19 21:54:10;;;;;;;18.5;16;;;;;;;9.25;100;98281.5;;;;
2021/05/19 22:04:09;;;;;;;20.2;15;;;;;;;9.45;100;98294.44;;;;
2021/05/19 22:14:08;;;;;;;18.4;15.2;;;;;;;9.6;100;98291.38;;;;
2021/05/19 22:34:05;;;;;;;20.4;16.4;;;;;;;9.79;100;98299.22;;;;
2021/05/19 22:44:04;;;;;;;18;14;;;;;;;9.91;100;98301.34;;;;
2021/05/19 22:54:03;;;;;;;21.3;14.9;;;;;;;9.92;100;98302.94;;;;
2021/05/19 23:04:01;;;;;;;27.7;15.3;;;;;;;9.94;100;98304.21;;;;
2021/05/19 23:14:00;;;;;;;15.8;13.5;;;;;;;9.87;100;98289.61;;;;
2021/05/19 23:23:59;;;;;;;16.9;12.4;;;;;;;9.99;100;98300.59;;;;
2021/05/19 23:33:58;;;;;;;16.8;11.6;;;;;;;9.97;100;98298.2;;;;
2021/05/19 23:43:56;;;;;;;16.7;14.2;;;;;;;9.96;100;98296.61;;;;
2021/05/19 23:53:55;;;;;;;13.3;10.7;;;;;;;10.01;100;98314.53;;;;
